Date,TemperatureHighF,TemperatureAvgF,TemperatureLowF,DewpointHighF,DewpointAvgF,DewpointLowF,HumidityHigh,HumidityAvg,HumidityLow,PressureMaxIn,PressureMinIn,WindSpeedMaxMPH,WindSpeedAvgMPH,GustSpeedMaxMPH,PrecipitationSumIn
2014-4-1,58.4,44.3,35.8,37.5,31.7,28.3,79,63,39,30.12,29.98,8,1,0,0.00
2014-4-2,47.9,42.2,37.8,43.8,39.2,34.3,96,89,79,30.15,30.06,6,0,0,0.01
2014-4-3,63.4,50.2,39.0,41.8,33.9,23.8,97,59,23,30.13,30.00,9,1,0,0.01
2014-4-4,45.2,42.1,39.8,42.4,38.0,34.1,97,86,69,30.09,29.73,14,2,18,0.12
2014-4-5,54.6,46.3,39.1,43.8,34.4,24.8,97,67,40,30.05,29.70,15,3,17,0.02
2014-4-6,60.1,44.4,35.6,35.7,26.2,20.1,82,52,23,30.22,30.05,8,1,0,0.00
2014-4-7,50.8,44.9,36.9,48.6,39.1,24.1,97,81,37,30.22,29.71,23,2,23,0.51
2014-4-8,66.1,54.5,48.8,58.1,46.4,35.2,99,77,45,29.70,29.39,13,2,15,0.29
2014-4-9,61.9,51.3,40.6,37.9,31.4,17.8,81,50,28,30.02,29.60,15,2,15,0.00
2014-4-10,55.9,47.6,32.4,40.2,27.6,16.9,75,48,30,30.22,30.02,12,2,16,0.00
2014-4-11,74.1,58.8,46.3,52.2,45.6,37.2,89,64,40,30.04,29.94,9,1,0,0.00
2014-4-12,70.8,57.7,47.7,53.4,43.6,34.8,92,64,29,30.22,29.99,10,1,12,0.00
2014-4-13,70.2,58.0,46.9,55.7,50.8,43.9,93,78,59,30.20,29.99,12,2,0,0.00
2014-4-14,69.8,59.1,52.3,57.4,53.8,50.3,96,83,61,30.03,29.87,15,3,15,0.00
2014-4-15,57.8,52.6,34.1,57.5,51.9,33.1,99,98,93,29.89,29.53,14,4,15,0.66
2014-4-16,48.0,38.4,30.5,33.3,22.8,18.8,97,56,34,30.56,29.87,17,3,17,0.13
2014-4-17,47.2,40.2,34.1,33.5,28.3,21.5,78,63,49,30.72,30.56,9,2,0,0.00
2014-4-18,48.9,39.8,31.4,36.2,32.2,28.0,90,75,57,30.60,30.27,7,1,0,0.00
2014-4-19,66.2,52.3,37.2,40.4,32.4,22.9,92,54,23,30.33,30.22,11,2,13,0.00
2014-4-20,55.7,49.4,39.8,36.8,30.4,26.6,69,49,35,30.49,30.32,11,2,12,0.00
2014-4-21,63.7,49.3,33.5,43.6,36.1,27.4,88,63,37,30.32,29.88,6,1,0,0.00
2014-4-22,65.7,54.5,44.1,51.6,47.7,42.6,96,79,55,29.88,29.49,10,1,0,0.00
2014-4-23,60.2,52.4,44.9,50.8,40.7,32.3,96,66,43,29.80,29.47,21,4,21,0.00
2014-4-24,61.9,51.2,41.4,33.0,21.4,12.7,67,35,15,30.01,29.80,16,3,18,0.00
2014-4-25,61.2,51.1,39.2,42.4,28.3,20.3,77,43,26,30.04,29.78,9,1,0,0.00
2014-4-26,65.8,51.1,44.1,50.7,45.1,41.8,97,82,43,29.88,29.70,12,2,12,0.73
2014-4-27,58.9,51.7,44.9,45.8,38.7,35.1,96,63,43,30.10,29.86,11,2,13,0.00
2014-4-28,63.7,52.8,43.6,43.0,38.1,33.6,79,59,34,30.14,30.00,9,1,16,0.00
2014-4-29,49.7,46.5,42.1,42.8,39.8,38.4,90,78,67,30.43,30.14,18,4,18,0.06
2014-4-30,55.9,45.5,40.8,55.4,44.0,38.1,99,95,85,30.41,29.96,17,5,18,4.76